Map

Track Data

SID SEASON NUMBER BASIN SUBBASIN NAME ISO_TIME NATURE LAT LON WMO_WIND WMO_PRES WMO_AGENCY TRACK_TYPE DIST2LAND LANDFALL IFLAG USA_AGENCY USA_ATCF_ID USA_LAT USA_LON USA_RECORD USA_STATUS USA_WIND USA_PRES USA_SSHS USA_R34_NE USA_R34_SE USA_R34_SW USA_R34_NW USA_R50_NE USA_R50_SE USA_R50_SW USA_R50_NW USA_R64_NE USA_R64_SE USA_R64_SW USA_R64_NW USA_POCI USA_ROCI USA_RMW USA_EYE TOKYO_LAT TOKYO_LON TOKYO_GRADE TOKYO_WIND TOKYO_PRES TOKYO_R50_DIR TOKYO_R50_LONG TOKYO_R50_SHORT TOKYO_R30_DIR TOKYO_R30_LONG TOKYO_R30_SHORT TOKYO_LAND CMA_LAT CMA_LON CMA_CAT CMA_WIND CMA_PRES HKO_LAT HKO_LON HKO_CAT HKO_WIND HKO_PRES NEWDELHI_LAT NEWDELHI_LON NEWDELHI_GRADE NEWDELHI_WIND NEWDELHI_PRES NEWDELHI_CI NEWDELHI_DP NEWDELHI_POCI REUNION_LAT REUNION_LON REUNION_TYPE REUNION_WIND REUNION_PRES REUNION_TNUM REUNION_CI REUNION_RMW REUNION_R34_NE REUNION_R34_SE REUNION_R34_SW REUNION_R34_NW REUNION_R50_NE REUNION_R50_SE REUNION_R50_SW REUNION_R50_NW REUNION_R64_NE REUNION_R64_SE REUNION_R64_SW REUNION_R64_NW BOM_LAT BOM_LON BOM_TYPE BOM_WIND BOM_PRES BOM_TNUM BOM_CI BOM_RMW BOM_R34_NE BOM_R34_SE BOM_R34_SW BOM_R34_NW BOM_R50_NE BOM_R50_SE BOM_R50_SW BOM_R50_NW BOM_R64_NE BOM_R64_SE BOM_R64_SW BOM_R64_NW BOM_ROCI BOM_POCI BOM_EYE BOM_POS_METHOD BOM_PRES_METHOD NADI_LAT NADI_LON NADI_CAT NADI_WIND NADI_PRES WELLINGTON_LAT WELLINGTON_LON WELLINGTON_WIND WELLINGTON_PRES DS824_LAT DS824_LON DS824_STAGE DS824_WIND DS824_PRES TD9636_LAT TD9636_LON TD9636_STAGE TD9636_WIND TD9636_PRES TD9635_LAT TD9635_LON TD9635_WIND TD9635_PRES TD9635_ROCI NEUMANN_LAT NEUMANN_LON NEUMANN_CLASS NEUMANN_WIND NEUMANN_PRES MLC_LAT MLC_LON MLC_CLASS MLC_WIND MLC_PRES USA_GUST BOM_GUST BOM_GUST_PER REUNION_GUST REUNION_GUST_PER USA_SEAHGT USA_SEARAD_NE USA_SEARAD_SE USA_SEARAD_SW USA_SEARAD_NW STORM_SPEED STORM_DIR
1857032S15066 1857 3 SI MM NOT_NAMED 1857-02-01 06:00:00 NR -15.0000 66.1000 reunion main 1057 1042 _____O________ -1 -15.0000 66.1000 99 9.90000 2 240
1857032S15066 1857 3 SI MM NOT_NAMED 1857-02-01 09:00:00 NR -15.0588 65.9913 main 1042 1033 _____P________ -1 -15.0588 65.9913 99 2 240
1857032S15066 1857 3 SI MM NOT_NAMED 1857-02-01 12:00:00 NR -15.1215 65.8787 main 1033 1018 _____P________ -1 -15.1215 65.8787 99 3 239
1857032S15066 1857 3 SI MM NOT_NAMED 1857-02-01 15:00:00 NR -15.1920 65.7583 main 1018 994 _____P________ -1 -15.1920 65.7583 99 3 238
1857032S15066 1857 3 SI MM NOT_NAMED 1857-02-01 18:00:00 NR -15.2743 65.6260 main 994 979 _____P________ -1 -15.2743 65.6260 99 3 236
1857032S15066 1857 3 SI MM NOT_NAMED 1857-02-01 21:00:00 NR -15.3724 65.4781 main 979 954 _____P________ -1 -15.3724 65.4781 99 4 235
1857032S15066 1857 3 SI MM NOT_NAMED 1857-02-02 00:00:00 NR -15.4901 65.3104 main 954 930 _____P________ -1 -15.4901 65.3104 99 4 233
1857032S15066 1857 3 SI MM NOT_NAMED 1857-02-02 03:00:00 NR -15.6313 65.1191 main 930 900 _____P________ -1 -15.6313 65.1191 99 5 232
1857032S15066 1857 3 SI MM NOT_NAMED 1857-02-02 06:00:00 NR -15.8000 64.9000 reunion main 900 870 _____O________ -1 -15.8000 64.9000 99 9.90000 6 231
1857032S15066 1857 3 SI MM NOT_NAMED 1857-02-02 09:00:00 NR -15.9984 64.6507 main 870 831 _____P________ -1 -15.9984 64.6507 99 7 230
1857032S15066 1857 3 SI MM NOT_NAMED 1857-02-02 12:00:00 NR -16.2226 64.3753 main 831 786 _____P________ -1 -16.2226 64.3753 99 7 229
1857032S15066 1857 3 SI MM NOT_NAMED 1857-02-02 15:00:00 NR -16.4670 64.0795 main 786 747 _____P________ -1 -16.4670 64.0795 99 8 229
1857032S15066 1857 3 SI MM NOT_NAMED 1857-02-02 18:00:00 NR -16.7261 63.7691 main 747 702 _____P________ -1 -16.7261 63.7691 99 8 229
1857032S15066 1857 3 SI MM NOT_NAMED 1857-02-02 21:00:00 NR -16.9943 63.4500 main 702 649 _____P________ -1 -16.9943 63.4500 99 8 229
1857032S15066 1857 3 SI MM NOT_NAMED 1857-02-03 00:00:00 NR -17.2663 63.1281 main 649 610 _____P________ -1 -17.2663 63.1281 99 8 228
1857032S15066 1857 3 SI MM NOT_NAMED 1857-02-03 03:00:00 NR -17.5367 62.8095 main 610 566 _____P________ -1 -17.5367 62.8095 99 8 228
1857032S15066 1857 3 SI MM NOT_NAMED 1857-02-03 06:00:00 NR -17.8000 62.5000 reunion main 566 528 _____O________ -1 -17.8000 62.5000 99 9.90000 8 228
1857032S15066 1857 3 SI MM NOT_NAMED 1857-02-03 09:00:00 NR -18.0553 62.1970 main 523 484 _____P________ -1 -18.0553 62.1970 99 8 228
1857032S15066 1857 3 SI MM NOT_NAMED 1857-02-03 12:00:00 NR -18.3091 61.8972 main 484 446 _____P________ -1 -18.3091 61.8972 99 8 228
1857032S15066 1857 3 SI MM NOT_NAMED 1857-02-03 15:00:00 NR -18.5578 61.6046 main 441 403 _____P________ -1 -18.5578 61.6046 99 7 228
1857032S15066 1857 3 SI MM NOT_NAMED 1857-02-03 18:00:00 NR -18.7977 61.3236 main 403 374 _____P________ -1 -18.7977 61.3236 99 7 228
1857032S15066 1857 3 SI MM NOT_NAMED 1857-02-03 21:00:00 NR -19.0255 61.0583 main 374 337 _____P________ -1 -19.0255 61.0583 99 7 228
1857032S15066 1857 3 SI MM NOT_NAMED 1857-02-04 00:00:00 NR -19.2374 60.8130 main 337 309 _____P________ -1 -19.2374 60.8130 99 6 227
1857032S15066 1857 3 SI MM NOT_NAMED 1857-02-04 03:00:00 NR -19.4301 60.5921 main 309 282 _____P________ -1 -19.4301 60.5921 99 5 227
1857032S15066 1857 3 SI MM NOT_NAMED 1857-02-04 06:00:00 NR -19.6000 60.4000 reunion main 282 259 _____O________ -1 -19.6000 60.4000 99 9.90000 5 226
1857032S15066 1857 3 SI MM NOT_NAMED 1857-02-04 09:00:00 NR -19.7447 60.2396 main 259 244 _____P________ -1 -19.7447 60.2396 99 4 226
1857032S15066 1857 3 SI MM NOT_NAMED 1857-02-04 12:00:00 NR -19.8665 60.1082 main 244 232 _____P________ -1 -19.8665 60.1082 99 3 225
1857032S15066 1857 3 SI MM NOT_NAMED 1857-02-04 15:00:00 NR -19.9687 60.0019 main 232 220 _____P________ -1 -19.9687 60.0019 99 3 224
1857032S15066 1857 3 SI MM NOT_NAMED 1857-02-04 18:00:00 NR -20.0545 59.9164 main 220 220 _____P________ -1 -20.0545 59.9164 99 2 222
1857032S15066 1857 3 SI MM NOT_NAMED 1857-02-04 21:00:00 NR -20.1273 59.8476 main 209 208 _____P________ -1 -20.1273 59.8476 99 2 222
1857032S15066 1857 3 SI MM NOT_NAMED 1857-02-05 00:00:00 NR -20.1903 59.7914 main 208 198 _____P________ -1 -20.1903 59.7914 99 2 219
1857032S15066 1857 3 SI MM NOT_NAMED 1857-02-05 03:00:00 NR -20.2468 59.7436 main 198 198 _____P________ -1 -20.2468 59.7436 99 1 220
1857032S15066 1857 3 SI MM NOT_NAMED 1857-02-05 06:00:00 NR -20.3000 59.7000 reunion main 198 _____O________ -1 -20.3000 59.7000 99 9.90000 1 219

About IBTrACS Database

This database is a web-friendly format of International Best Track Archive for Climate Stewardship (IBTrACS), a global best track data archive curated by NOAA dating back to 1842.

Updated: 2021-10-08